L'Acadie

CWIZ · Quebec, 加拿大

罗盘
风向 的 风向 140°
风: 11 kt, 4 beaufort

添加一条跑道以查看侧风和逆风信息。

添置 跑道
0 5.000 10.000 15.000 20.000
OVC 13.000 ft
METAR CYUL 060900Z 14011KT 15SM OVC130 04/M05 A3017 RMK AS8 SLP219

METAR L'Acadie - CWIZ

L'Acadie是,加拿大中的未知。 该领域的国际民航组织标志是CWIZ.

这份报告是针对2022年12月6日 04:00, 当地时间在蒙特利尔皮埃尔·埃利奥特·特鲁多国际机场进行的。

机场观察

风向为140°,速度为11 kt。

可见度为15 mi。

有乌云密布在13.000 ft的高度。 破损或更高的上限为13.000 ft。

温度为4 °C,阵风为-2 °C。 露点为-5 °C,相对湿度为52%。 海平面上的气压为30,17 inHg (QNH)。

白天

今天,太阳从07:17升起,在16:11降落。 这适用于L'Acadie,世界夏令时可能有所不同。 当地时间与世界标准时间之间的时差为-5 小时。 当前,没有夏令时有效。

公司介绍

我们没有关于这个机场的公司信息。

体会

到Vliegles.nl去找飞行课程,跳伞和其他飞行体验。 浏览页面,了解L'Acadie附近所有可用的活动。 你也可以使用搜索功能来寻找你所在地附近的特定飞行课程、跳伞或其他飞行体验。

乌云

13.000 ft OVC 乌云密布

温度 & 天气

温度 4 °C
露点 -5 °C
相对湿度 52%
风寒 -2 °C
Kp-index 0 (0-9)

评论

SLP219海平面压力为30,18 inHg (30,18 inHg)
AS8

白天

日出
07:20 (2:26)
中午
11:46
日落
16:11

小工具

你想在你的网站上有一个关于L'Acadie的当前航空天气(METAR)的小部件吗?

显示HTML代码

我们和第三方通过cookies跟踪您在我们网站上的互联网行为。如果你继续,我们认为你同意我们的饼干政策